Pagrindinis puslapis
METAR-TAF:

METAR-TAF

Oro uostai :

Amsterdamo Schipcholo oro uostas

Amsterdamas, Nyderlandai

platuma: 52-18N, ilguma: 004-46E, Aukštis: -4 m

Dabartinis oras

Ataskaita buvo paskelbta 18 minutes, ne 16:25 UTC
Vėjas 9 kt iš Rytų/Šiaurės Rytų, svyruoja nuo Šiaurės Rytų ir Rytų
Temperatūra 17°C
Drėgmė 68%
Slėgis 1026 hPa
Matomumas 10 km arba daugiau
nėra debesų žemiau 1500 m ir nėra kamuolinių lietaus debesų

METAR: EHAM 201625Z 07009KT 040V100 CAVOK 17/11 Q1026 NOSIG

Laikas: 18:43 (16:43 UTC)

Prognozė

Ataskaita buvo paskelbta 5 valandos ir 52 minutes, ne 10:51 UTC
Prognozė galioja nuo 20 metu 12 UTC su 21 metu 18 UTC
Vėjas 7 kt iš Rytų
Matomumas 10 km arba daugiau
nėra debesų žemiau 1500 m ir nėra kamuolinių lietaus debesų
Tapsmas
nuo 21 metu 06 UTC su 21 metu 09 UTC
Vėjas 12 kt iš Rytų/Pietryčių

TAF: EHAM 201051Z 2012/2118 09007KT CAVOK BECMG 2106/2109 12012KT

Orai ataskaitas ir orų prognozės (METAR, TAF).

turimą stotys yra geltonos ir raudonos taškus žemėlapyje.

Perkelti pele per norėdami pamatyti stoties vardą.

Tada spustelėkite, norėdami matyti oro stebėjimo ir prognozės.

Norėdami pakeisti žemėlapį: spustelėkite ant žalios mygtukų su juodo kryžiaus žemyn,; žalią mygtuką su brūkšneliu, jei norite nutolinti; arba žalių rodyklių gretimoms žemėlapius.


METAR-TAF: